createdAt,value
2017-11-24T00:01:36.579Z,1.03
2017-11-24T00:04:06.216Z,1.27
2017-11-24T00:06:34.489Z,1.40
2017-11-24T00:09:02.765Z,1.57
2017-11-24T00:11:31.050Z,1.37
2017-11-24T00:13:59.370Z,1.90
2017-11-24T00:16:28.430Z,1.97
2017-11-24T00:18:56.722Z,1.77
2017-11-24T00:21:25.794Z,2.07
2017-11-24T00:23:54.086Z,1.40
2017-11-24T00:26:22.390Z,1.90
2017-11-24T00:28:50.682Z,1.67
2017-11-24T00:31:18.971Z,1.90
2017-11-24T00:33:47.273Z,1.33
2017-11-24T00:36:15.979Z,1.62
2017-11-24T00:38:44.272Z,1.70
2017-11-24T00:41:12.574Z,1.60
2017-11-24T00:43:40.854Z,1.10
2017-11-24T00:46:09.138Z,1.10
2017-11-24T00:48:37.439Z,1.10
2017-11-24T00:51:05.751Z,0.87
2017-11-24T00:53:34.035Z,1.30
2017-11-24T00:56:02.366Z,0.87
2017-11-24T00:58:30.666Z,1.10
2017-11-24T01:00:58.961Z,1.20
2017-11-24T01:03:27.250Z,0.90
2017-11-24T01:05:56.319Z,1.00
2017-11-24T01:08:24.635Z,1.20
2017-11-24T01:10:52.918Z,1.20
2017-11-24T01:13:21.216Z,1.57
2017-11-24T01:15:49.502Z,1.03
2017-11-24T01:18:17.800Z,0.75
2017-11-24T01:20:46.098Z,1.10
2017-11-24T01:23:14.395Z,1.35
2017-11-24T01:25:42.694Z,1.50
2017-11-24T01:28:10.987Z,1.70
2017-11-24T01:30:39.294Z,1.10
2017-11-24T01:33:07.594Z,1.33
2017-11-24T01:35:35.954Z,0.97
2017-11-24T01:38:05.799Z,1.33
2017-11-24T01:40:34.089Z,1.00
2017-11-24T01:43:02.402Z,1.30
2017-11-24T01:45:30.716Z,0.90
2017-11-24T01:47:59.000Z,1.20
2017-11-24T01:50:27.375Z,1.37
2017-11-24T01:52:55.664Z,1.57
2017-11-24T01:55:23.951Z,1.07
2017-11-24T01:57:52.244Z,1.43
2017-11-24T02:00:20.534Z,2.07
2017-11-24T02:02:48.831Z,1.40
2017-11-24T02:05:17.142Z,1.40
2017-11-24T02:07:46.241Z,1.37
2017-11-24T02:10:14.527Z,1.23
2017-11-24T02:12:42.821Z,1.50
2017-11-24T02:15:11.105Z,1.33
2017-11-24T02:17:39.421Z,0.97
2017-11-24T02:20:07.721Z,1.33
2017-11-24T02:22:36.015Z,1.07
2017-11-24T02:25:04.311Z,1.70
2017-11-24T02:27:32.611Z,1.03
2017-11-24T02:30:01.675Z,0.90
2017-11-24T02:32:29.983Z,1.17
2017-11-24T02:34:58.289Z,1.00
2017-11-24T02:37:26.591Z,1.30
2017-11-24T02:39:54.883Z,1.23
2017-11-24T02:42:23.186Z,1.52
2017-11-24T02:44:51.500Z,1.42
2017-11-24T02:47:19.992Z,1.30
2017-11-24T02:49:48.284Z,1.37
2017-11-24T02:52:16.577Z,1.60
2017-11-24T02:54:44.881Z,1.17
2017-11-24T02:57:13.969Z,1.20
2017-11-24T02:59:42.261Z,1.03
2017-11-24T03:02:11.311Z,1.40
2017-11-24T03:04:39.604Z,1.47
2017-11-24T03:07:07.892Z,1.50
2017-11-24T03:09:36.959Z,1.70
2017-11-24T03:12:05.258Z,2.10
2017-11-24T03:14:33.562Z,1.20
2017-11-24T03:17:01.859Z,1.80
2017-11-24T03:19:30.154Z,1.20
2017-11-24T03:21:58.451Z,1.90
2017-11-24T03:24:26.743Z,1.50
2017-11-24T03:26:57.870Z,1.20
2017-11-24T03:29:26.170Z,1.40
2017-11-24T03:31:55.247Z,1.37
2017-11-24T03:34:23.556Z,2.33
2017-11-24T03:36:52.607Z,1.30
2017-11-24T03:39:20.894Z,1.47
2017-11-24T03:41:49.203Z,1.80
2017-11-24T03:44:17.489Z,1.67
2017-11-24T03:46:46.401Z,2.30
2017-11-24T03:49:14.702Z,3.30
2017-11-24T03:51:42.999Z,3.10
2017-11-24T03:54:12.078Z,4.10
2017-11-24T03:56:41.257Z,3.73
2017-11-24T03:59:09.556Z,4.03
2017-11-24T04:01:39.221Z,5.70
2017-11-24T04:04:07.514Z,4.90
2017-11-24T04:06:35.820Z,4.83
2017-11-24T04:09:04.126Z,4.13
2017-11-24T04:11:32.424Z,4.80
2017-11-24T04:14:00.727Z,4.43
2017-11-24T04:16:29.055Z,5.05
2017-11-24T04:18:57.365Z,4.90
2017-11-24T04:21:26.163Z,4.57
2017-11-24T04:23:54.447Z,5.07
2017-11-24T04:26:22.743Z,4.63
2017-11-24T04:28:51.029Z,5.50
2017-11-24T04:31:19.319Z,5.30
2017-11-24T04:33:48.370Z,5.23
2017-11-24T04:36:16.660Z,4.00
2017-11-24T04:38:44.939Z,5.40
2017-11-24T04:41:13.207Z,5.00
2017-11-24T04:43:41.883Z,4.80
2017-11-24T04:46:10.178Z,5.43
2017-11-24T04:48:38.496Z,5.12
2017-11-24T04:51:06.801Z,4.30
2017-11-24T04:53:35.099Z,4.73
2017-11-24T04:56:03.424Z,4.87
2017-11-24T04:58:32.489Z,4.70
2017-11-24T05:01:00.790Z,5.13
2017-11-24T05:03:29.853Z,4.50
2017-11-24T05:05:58.150Z,4.30
2017-11-24T05:08:27.210Z,4.23
2017-11-24T05:10:55.513Z,4.67
2017-11-24T05:13:23.809Z,4.90
2017-11-24T05:15:52.111Z,5.60
2017-11-24T05:18:21.308Z,4.33
2017-11-24T05:20:49.598Z,4.87
2017-11-24T05:23:17.925Z,4.50
2017-11-24T05:25:46.448Z,5.10
2017-11-24T05:28:14.754Z,4.80
2017-11-24T05:30:43.046Z,4.53
2017-11-24T05:33:11.354Z,5.57
2017-11-24T05:35:39.654Z,4.97
2017-11-24T05:38:07.955Z,5.00
2017-11-24T05:40:36.247Z,4.35
2017-11-24T05:43:04.548Z,4.33
2017-11-24T05:45:32.845Z,4.73
2017-11-24T05:48:01.154Z,4.10
2017-11-24T05:50:29.491Z,4.40
2017-11-24T05:52:57.789Z,3.60
2017-11-24T05:55:26.099Z,4.07
2017-11-24T05:57:54.402Z,4.17
2017-11-24T06:00:23.477Z,4.53
2017-11-24T06:02:51.776Z,3.97
2017-11-24T06:05:20.829Z,4.00
2017-11-24T06:07:49.117Z,4.10
2017-11-24T06:10:17.416Z,3.87
2017-11-24T06:12:45.727Z,3.90
2017-11-24T06:15:14.033Z,3.87
2017-11-24T06:17:42.356Z,3.63
2017-11-24T06:20:11.514Z,3.80
2017-11-24T06:22:39.797Z,3.53
2017-11-24T06:25:09.539Z,4.10
2017-11-24T06:27:37.846Z,3.90
2017-11-24T06:30:06.151Z,3.40
2017-11-24T06:32:34.450Z,3.47
2017-11-24T06:35:02.743Z,3.47
2017-11-24T06:37:31.820Z,3.90
2017-11-24T06:40:00.114Z,3.13
2017-11-24T06:42:29.551Z,3.76
2017-11-24T06:44:57.858Z,3.90
2017-11-24T06:47:26.162Z,3.37
2017-11-24T06:49:54.466Z,4.13
2017-11-24T06:52:22.769Z,3.33
2017-11-24T06:54:51.064Z,3.37
2017-11-24T06:57:19.412Z,3.13
2017-11-24T06:59:47.712Z,3.87
2017-11-24T07:02:16.018Z,4.03
2017-11-24T07:04:44.316Z,4.37
2017-11-24T07:07:13.357Z,4.05
2017-11-24T07:09:41.635Z,3.43
2017-11-24T07:12:09.906Z,3.20
2017-11-24T07:14:38.185Z,3.40
2017-11-24T07:17:06.463Z,4.10
2017-11-24T07:19:34.755Z,4.03
2017-11-24T07:22:03.059Z,4.50
2017-11-24T07:24:32.125Z,3.80
2017-11-24T07:27:00.459Z,4.00
2017-11-24T07:29:28.848Z,3.23
2017-11-24T07:31:57.140Z,4.00
2017-11-24T07:34:25.522Z,3.80
2017-11-24T07:36:53.815Z,3.25
2017-11-24T07:39:22.890Z,4.60
2017-11-24T07:41:51.313Z,3.23
2017-11-24T07:44:19.811Z,4.00
2017-11-24T07:46:48.174Z,3.05
2017-11-24T07:49:16.522Z,3.20
2017-11-24T07:51:44.814Z,3.23
2017-11-24T07:54:13.098Z,3.40
2017-11-24T07:56:41.454Z,4.00
2017-11-24T07:59:09.746Z,3.70
2017-11-24T08:01:38.090Z,3.10
2017-11-24T08:04:06.391Z,3.93
2017-11-24T08:06:34.690Z,3.40
2017-11-24T08:09:03.780Z,3.20
2017-11-24T08:11:32.080Z,5.87
2017-11-24T08:14:02.328Z,3.60
2017-11-24T08:16:30.624Z,2.80
2017-11-24T08:18:58.916Z,3.30
2017-11-24T08:21:27.212Z,3.80
2017-11-24T08:23:55.506Z,2.63
2017-11-24T08:26:24.558Z,3.30
2017-11-24T08:28:52.884Z,2.80
2017-11-24T08:31:21.183Z,3.63
2017-11-24T08:33:49.556Z,3.50
2017-11-24T08:36:17.838Z,3.00
2017-11-24T08:38:46.141Z,2.85
2017-11-24T08:41:14.451Z,3.00
2017-11-24T08:43:43.558Z,3.37
2017-11-24T08:46:11.859Z,3.40
2017-11-24T08:48:45.575Z,3.83
2017-11-24T08:51:13.861Z,3.20
2017-11-24T08:53:42.186Z,3.40
2017-11-24T08:56:11.254Z,3.43
2017-11-24T08:58:39.573Z,3.53
2017-11-24T09:01:07.877Z,3.30
2017-11-24T09:03:36.175Z,3.50
2017-11-24T09:06:04.484Z,3.33
2017-11-24T09:08:32.783Z,3.20
2017-11-24T09:11:01.085Z,3.13
2017-11-24T09:13:29.369Z,3.20
2017-11-24T09:15:57.692Z,3.60
2017-11-24T09:18:25.987Z,3.37
2017-11-24T09:20:54.282Z,2.85
2017-11-24T09:23:22.567Z,3.50
2017-11-24T09:25:50.911Z,3.17
2017-11-24T09:28:19.241Z,2.77
2017-11-24T09:30:47.582Z,2.87
2017-11-24T09:33:15.877Z,2.90
2017-11-24T09:35:44.234Z,2.70
2017-11-24T09:38:13.651Z,3.23
2017-11-24T09:40:41.945Z,2.70
2017-11-24T09:43:10.216Z,2.93
2017-11-24T09:45:38.548Z,3.10
2017-11-24T09:48:06.924Z,2.73
2017-11-24T09:50:35.308Z,2.70
2017-11-24T09:53:04.161Z,3.17
2017-11-24T09:55:32.483Z,2.90
2017-11-24T09:58:01.361Z,2.30
2017-11-24T10:00:30.601Z,2.90
2017-11-24T10:02:58.903Z,2.67
2017-11-24T10:05:28.575Z,3.10
2017-11-24T10:07:56.870Z,3.00
2017-11-24T10:10:25.181Z,3.10
2017-11-24T10:12:53.488Z,2.92
2017-11-24T10:15:23.744Z,3.30
2017-11-24T10:17:52.123Z,3.20
2017-11-24T10:20:20.423Z,2.83
2017-11-24T10:22:48.718Z,2.78
2017-11-24T10:25:17.029Z,3.20
2017-11-24T10:27:45.315Z,3.33
2017-11-24T10:30:13.615Z,3.70
2017-11-24T10:32:41.936Z,2.47
2017-11-24T10:35:10.976Z,2.67
2017-11-24T10:37:39.293Z,2.60
2017-11-24T10:40:07.591Z,2.53
2017-11-24T10:42:35.929Z,3.80
2017-11-24T10:45:04.227Z,2.90
2017-11-24T10:47:32.522Z,2.87
2017-11-24T10:50:00.819Z,3.60
2017-11-24T10:52:29.118Z,2.83
2017-11-24T10:54:57.414Z,3.90
2017-11-24T10:57:25.778Z,3.57
2017-11-24T10:59:54.131Z,0.90
2017-11-24T11:02:22.422Z,0.30
2017-11-24T11:04:50.743Z,0.30
2017-11-24T11:07:19.030Z,0.30
2017-11-24T11:09:47.343Z,0.20
2017-11-24T11:12:15.626Z,0.30
2017-11-24T11:14:43.950Z,0.23
2017-11-24T11:17:12.259Z,0.20
2017-11-24T11:19:40.645Z,0.20
2017-11-24T11:22:08.926Z,0.20
2017-11-24T11:24:37.209Z,0.20
2017-11-24T11:27:06.089Z,0.30
2017-11-24T11:29:34.374Z,0.20
2017-11-24T11:32:02.658Z,0.17
2017-11-24T11:34:30.977Z,0.40
2017-11-24T11:36:59.298Z,0.20
2017-11-24T11:39:27.751Z,0.10
2017-11-24T11:41:56.043Z,0.10
2017-11-24T11:44:24.347Z,0.10
2017-11-24T11:46:52.662Z,0.17
2017-11-24T11:49:21.723Z,0.20
2017-11-24T11:51:50.022Z,0.10
2017-11-24T11:54:18.318Z,0.20
2017-11-24T11:56:47.470Z,0.20
2017-11-24T11:59:15.878Z,0.10
2017-11-24T12:01:44.161Z,0.27
2017-11-24T12:04:13.243Z,0.10
2017-11-24T12:06:42.503Z,0.10
2017-11-24T12:09:11.654Z,0.20
2017-11-24T12:11:39.971Z,2.83
2017-11-24T12:14:08.263Z,0.50
2017-11-24T12:16:36.573Z,12.20
2017-11-24T12:19:04.874Z,0.30
2017-11-24T12:21:33.166Z,0.20
2017-11-24T12:24:01.477Z,0.20
2017-11-24T12:26:29.829Z,0.40
2017-11-24T12:28:58.209Z,2.17
2017-11-24T12:31:26.535Z,2.30
2017-11-24T12:33:54.858Z,2.77
2017-11-24T12:36:23.178Z,1.00
2017-11-24T12:38:51.482Z,0.70
2017-11-24T12:41:19.771Z,0.40
2017-11-24T12:43:48.842Z,0.40
2017-11-24T12:46:17.152Z,2.30
2017-11-24T12:48:45.449Z,2.87
2017-11-24T12:51:13.820Z,2.80
2017-11-24T12:53:42.122Z,2.90
2017-11-24T12:56:10.441Z,1.60
2017-11-24T12:58:38.961Z,1.50
2017-11-24T13:01:07.556Z,1.00
2017-11-24T13:03:35.942Z,0.47
2017-11-24T13:06:04.290Z,0.97
2017-11-24T13:08:32.644Z,0.57
2017-11-24T13:11:00.985Z,0.70
2017-11-24T13:13:29.641Z,0.40
2017-11-24T13:15:58.034Z,0.37
2017-11-24T13:18:26.686Z,0.30
2017-11-24T13:20:54.995Z,0.47
2017-11-24T13:23:23.501Z,0.50
2017-11-24T13:25:52.056Z,0.77
2017-11-24T13:28:20.555Z,0.40
2017-11-24T13:30:48.839Z,0.43
2017-11-24T13:33:17.178Z,0.50
2017-11-24T13:35:45.486Z,0.40
2017-11-24T13:38:13.791Z,0.30
2017-11-24T13:40:42.754Z,0.43
2017-11-24T13:43:11.041Z,0.20
2017-11-24T13:45:39.343Z,0.23
2017-11-24T13:48:07.633Z,0.30
2017-11-24T13:50:43.777Z,0.20
2017-11-24T13:53:16.439Z,0.20
2017-11-24T13:55:44.752Z,0.27
2017-11-24T13:58:13.039Z,0.10
2017-11-24T14:00:41.355Z,0.10
2017-11-24T14:03:09.662Z,0.20
2017-11-24T14:05:37.986Z,0.20
2017-11-24T14:08:06.284Z,0.20
2017-11-24T14:10:34.580Z,0.30
2017-11-24T14:13:02.874Z,0.20
2017-11-24T14:15:31.174Z,6.63
2017-11-24T14:17:59.479Z,0.50
2017-11-24T14:20:27.762Z,0.60
2017-11-24T14:22:56.072Z,0.30
2017-11-24T14:25:24.370Z,0.50
2017-11-24T14:27:52.699Z,0.73
2017-11-24T14:30:21.003Z,0.70
2017-11-24T14:32:50.050Z,0.47
2017-11-24T14:35:18.330Z,0.53
2017-11-24T14:37:46.618Z,0.63
2017-11-24T14:40:14.918Z,0.70
2017-11-24T14:42:43.216Z,0.93
2017-11-24T14:45:11.510Z,0.73
2017-11-24T14:47:39.810Z,0.63
2017-11-24T14:50:08.806Z,0.90
2017-11-24T14:52:37.103Z,0.83
2017-11-24T14:55:05.404Z,0.60
2017-11-24T14:57:34.453Z,0.70
2017-11-24T15:00:02.775Z,0.80
2017-11-24T15:02:31.070Z,0.83
2017-11-24T15:04:59.373Z,0.93
2017-11-24T15:07:27.658Z,0.90
2017-11-24T15:09:55.951Z,1.10
2017-11-24T15:12:24.231Z,0.87
2017-11-24T15:14:52.506Z,1.20
2017-11-24T15:17:20.789Z,1.00
2017-11-24T15:19:49.082Z,1.00
2017-11-24T15:22:17.373Z,0.70
2017-11-24T15:24:47.238Z,0.70
2017-11-24T15:27:15.531Z,1.80
2017-11-24T15:29:43.830Z,5.30
2017-11-24T15:32:12.112Z,4.83
2017-11-24T15:34:41.185Z,1.00
2017-11-24T15:37:09.461Z,1.25
2017-11-24T15:39:37.749Z,1.20
2017-11-24T15:42:06.029Z,1.10
2017-11-24T15:44:34.350Z,1.30
2017-11-24T15:47:02.651Z,1.00
2017-11-24T15:49:30.914Z,1.00
2017-11-24T15:51:59.212Z,1.30
2017-11-24T15:54:27.476Z,4.20
2017-11-24T15:56:55.782Z,2.75
2017-11-24T15:59:24.057Z,2.47
2017-11-24T16:01:53.109Z,4.73
2017-11-24T16:04:24.181Z,5.40
2017-11-24T16:06:52.523Z,5.53
2017-11-24T16:09:20.814Z,1.63
2017-11-24T16:11:49.111Z,1.30
2017-11-24T16:14:17.400Z,1.03
2017-11-24T16:16:47.586Z,1.34
2017-11-24T16:19:15.870Z,1.30
2017-11-24T16:21:44.187Z,1.43
2017-11-24T16:24:13.246Z,1.00
2017-11-24T16:26:42.645Z,0.80
2017-11-24T16:29:10.956Z,1.27
2017-11-24T16:31:39.240Z,1.37
2017-11-24T16:34:07.549Z,1.40
2017-11-24T16:36:35.829Z,1.90
2017-11-24T16:39:04.117Z,2.10
2017-11-24T16:41:32.400Z,1.77
2017-11-24T16:44:00.678Z,1.70
2017-11-24T16:46:28.968Z,2.10
2017-11-24T16:48:57.271Z,2.10
2017-11-24T16:51:26.323Z,1.90
2017-11-24T16:53:54.639Z,2.07
2017-11-24T16:56:23.686Z,1.40
2017-11-24T16:58:52.905Z,1.53
2017-11-24T17:01:21.179Z,1.67
2017-11-24T17:03:49.463Z,1.80
2017-11-24T17:06:17.746Z,1.63
2017-11-24T17:08:46.033Z,1.70
2017-11-24T17:11:15.093Z,2.80
2017-11-24T17:13:43.387Z,2.53
2017-11-24T17:16:11.686Z,3.30
2017-11-24T17:18:40.834Z,2.80
2017-11-24T17:21:09.127Z,3.13
2017-11-24T17:23:37.427Z,2.50
2017-11-24T17:26:05.721Z,2.73
2017-11-24T17:28:34.779Z,2.53
2017-11-24T17:31:03.083Z,2.30
2017-11-24T17:33:32.153Z,3.25
2017-11-24T17:36:00.446Z,6.10
2017-11-24T17:38:29.491Z,4.00
2017-11-24T17:40:57.842Z,3.53
2017-11-24T17:43:26.149Z,3.60
2017-11-24T17:45:54.436Z,3.10
2017-11-24T17:48:22.713Z,2.63
2017-11-24T17:50:51.345Z,3.40
2017-11-24T17:53:20.412Z,3.50
2017-11-24T17:55:48.706Z,3.03
2017-11-24T17:58:17.769Z,2.50
2017-11-24T18:00:46.098Z,2.90
2017-11-24T18:03:14.390Z,3.87
2017-11-24T18:05:42.672Z,3.07
2017-11-24T18:08:10.987Z,2.70
2017-11-24T18:10:39.301Z,3.53
2017-11-24T18:13:07.608Z,2.90
2017-11-24T18:15:35.900Z,4.60
2017-11-24T18:18:04.190Z,5.00
2017-11-24T18:20:32.516Z,4.82
2017-11-24T18:23:00.880Z,9.88
2017-11-24T18:25:29.212Z,7.80
2017-11-24T18:27:57.661Z,7.70
2017-11-24T18:30:25.967Z,6.70
2017-11-24T18:32:54.288Z,6.40
2017-11-24T18:35:22.627Z,5.93
2017-11-24T18:37:50.977Z,4.80
2017-11-24T18:40:19.303Z,6.50
2017-11-24T18:42:47.742Z,13.55
2017-11-24T18:45:16.052Z,6.43
2017-11-24T18:47:44.381Z,9.67
2017-11-24T18:50:12.728Z,5.97
2017-11-24T18:52:41.964Z,5.50
2017-11-24T18:55:10.643Z,6.10
2017-11-24T18:57:38.971Z,9.30
2017-11-24T19:00:07.468Z,5.60
2017-11-24T19:02:35.860Z,7.20
2017-11-24T19:05:04.310Z,6.75
2017-11-24T19:07:32.708Z,6.23
2017-11-24T19:10:01.140Z,9.60
2017-11-24T19:12:29.702Z,6.55
2017-11-24T19:14:58.287Z,6.43
2017-11-24T19:17:27.310Z,5.70
2017-11-24T19:19:57.262Z,5.17
2017-11-24T19:22:26.521Z,5.50
2017-11-24T19:24:55.491Z,6.12
2017-11-24T19:27:25.035Z,5.33
2017-11-24T19:29:54.748Z,3.80
2017-11-24T19:32:24.738Z,5.10
2017-11-24T19:34:54.656Z,6.20
2017-11-24T19:37:24.632Z,6.67
2017-11-24T19:39:54.498Z,7.90
2017-11-24T19:42:24.415Z,5.07
2017-11-24T19:44:54.290Z,4.60
2017-11-24T19:47:24.179Z,5.23
2017-11-24T19:49:54.080Z,5.60
2017-11-24T19:52:25.169Z,7.10
2017-11-24T19:54:54.976Z,4.85
2017-11-24T19:57:24.923Z,6.10
2017-11-24T19:59:54.776Z,4.93
2017-11-24T20:02:24.616Z,4.83
2017-11-24T20:04:54.509Z,5.23
2017-11-24T20:07:24.466Z,4.77
2017-11-24T20:09:54.299Z,4.93
2017-11-24T20:12:24.338Z,4.07
2017-11-24T20:14:54.225Z,4.20
2017-11-24T20:17:24.874Z,4.85
2017-11-24T20:19:54.863Z,4.93
2017-11-24T20:22:24.721Z,6.00
2017-11-24T20:24:54.482Z,7.27
2017-11-24T20:27:24.315Z,7.07
2017-11-24T20:29:54.240Z,5.93
2017-11-24T20:32:24.113Z,5.70
2017-11-24T20:34:53.911Z,6.60
2017-11-24T20:37:23.727Z,5.63
2017-11-24T20:39:53.599Z,5.77
2017-11-24T20:42:23.400Z,5.20
2017-11-24T20:44:53.445Z,4.80
2017-11-24T20:47:23.281Z,5.77
2017-11-24T20:49:53.118Z,4.85
2017-11-24T20:52:22.867Z,4.93
2017-11-24T20:54:54.081Z,6.67
2017-11-24T20:57:23.918Z,6.67
2017-11-24T20:59:53.746Z,6.53
2017-11-24T21:02:24.404Z,8.93
2017-11-24T21:04:54.237Z,8.00
2017-11-24T21:07:24.072Z,4.90
2017-11-24T21:09:53.984Z,5.05
2017-11-24T21:12:23.925Z,5.37
2017-11-24T21:14:53.896Z,5.90
2017-11-24T21:17:23.759Z,5.20
2017-11-24T21:19:53.515Z,5.70
2017-11-24T21:22:23.310Z,5.80
2017-11-24T21:24:53.840Z,7.30
2017-11-24T21:27:24.395Z,9.30
2017-11-24T21:29:54.334Z,8.33
2017-11-24T21:32:24.152Z,7.70
2017-11-24T21:34:53.917Z,7.57
2017-11-24T21:37:24.180Z,8.50
2017-11-24T21:39:55.778Z,10.80
2017-11-24T21:42:25.469Z,10.70
2017-11-24T21:44:55.861Z,8.67
2017-11-24T21:47:30.620Z,10.23
2017-11-24T21:49:59.285Z,8.53
2017-11-24T21:52:28.210Z,8.70
2017-11-24T21:54:56.702Z,8.57
2017-11-24T21:57:25.148Z,7.80
2017-11-24T21:59:53.860Z,9.07
2017-11-24T22:02:22.328Z,6.93
2017-11-24T22:04:50.959Z,7.27
2017-11-24T22:07:19.756Z,7.83
2017-11-24T22:09:48.277Z,10.17
2017-11-24T22:12:16.605Z,8.17
2017-11-24T22:14:44.925Z,6.40
2017-11-24T22:17:13.997Z,5.37
2017-11-24T22:19:42.320Z,5.10
2017-11-24T22:22:10.622Z,5.23
2017-11-24T22:24:38.917Z,3.93
2017-11-24T22:27:07.215Z,5.70
2017-11-24T22:29:35.507Z,6.00
2017-11-24T22:32:04.551Z,4.83
2017-11-24T22:34:32.826Z,6.00
2017-11-24T22:37:01.101Z,4.95
2017-11-24T22:39:29.441Z,6.33
2017-11-24T22:41:57.736Z,7.37
2017-11-24T22:44:26.029Z,7.00
2017-11-24T22:46:54.309Z,6.57
2017-11-24T22:49:22.590Z,7.40
2017-11-24T22:51:50.860Z,6.57
2017-11-24T22:54:19.141Z,8.07
2017-11-24T22:56:48.177Z,7.50
2017-11-24T22:59:17.235Z,7.47
2017-11-24T23:01:45.530Z,7.70
2017-11-24T23:04:13.822Z,8.73
2017-11-24T23:06:43.466Z,6.93
2017-11-24T23:09:11.770Z,8.13
2017-11-24T23:11:40.054Z,6.87
2017-11-24T23:14:08.350Z,8.97
2017-11-24T23:16:36.633Z,7.47
2017-11-24T23:19:04.918Z,7.78
2017-11-24T23:21:33.974Z,8.20
2017-11-24T23:24:02.286Z,8.70
2017-11-24T23:26:30.606Z,7.93
2017-11-24T23:28:58.898Z,7.33
2017-11-24T23:31:27.183Z,7.03
2017-11-24T23:33:55.466Z,7.10
2017-11-24T23:36:23.762Z,6.20
2017-11-24T23:38:52.790Z,6.23
2017-11-24T23:41:21.079Z,4.53
2017-11-24T23:43:49.359Z,5.90
2017-11-24T23:46:17.638Z,5.80
2017-11-24T23:48:45.921Z,6.70
2017-11-24T23:51:14.203Z,7.13
2017-11-24T23:53:42.486Z,5.07
2017-11-24T23:56:10.771Z,5.37
2017-11-24T23:58:39.050Z,5.37
